Fu Quan Shan — VRJW3 — position and weather

sailwx.info

Track history (hours):
 
Tides and Currents Weather Stations Pressure Air Temp Water Temp Dewpoint Dewpoint Depression Visibility Wind Speed Wind Dir Waves Ship Positions

Fu Quan Shan

Last reported at 2017-Nov-29 01:55 UTC. Time now 2017-Dec-11 23:07 UTC.
Position S 24°16' W 045°47'.
Warning: this ship's position is 12 days out of date.

Length 190 m; draft 7.4 m.

Type: Cargo ship. MMSI: 477902600.

Date/timePositionNaut miles runAvg speedWind from/ knotsBaromVisibWave heightAir tempDewpointWater temp
2017-Nov-29 01:55S 24°16' W 045°47'711.9
2017-Nov-29 01:22S 24°15' W 045°55'512.2
2017-Nov-29 00:57S 24°12' W 045°59'512.2
2017-Nov-29 00:30S 24°09' W 046°04'611.4
2017-Nov-29 00:00S 24°06' W 046°10'510.1
2017-Nov-28 23:30S 24°05' W 046°15'5 9.5
2017-Nov-28 23:00S 24°02' W 046°19'1 2.5
2017-Nov-28 22:26S 24°01' W 046°20'0 0.0
2017-Nov-28 21:56S 24°01' W 046°20'0 0.1
2017-Nov-28 21:29S 24°01' W 046°20'0 0.2
2017-Nov-28 20:50S 24°01' W 046°20'0 0.4
2017-Nov-28 20:31S 24°01' W 046°20'2 4.7
2017-Nov-28 20:01S 24°03' W 046°18'4 8.9
2017-Nov-28 19:30S 24°05' W 046°14'510.0
2017-Nov-28 19:00S 24°08' W 046°10'510.5
2017-Nov-28 18:30S 24°11' W 046°05'1 0.9
2017-Nov-28 17:48S 24°12' W 046°05'0 0.0
2017-Nov-28 17:30S 24°12' W 046°05'0 0.0
2017-Nov-28 17:00S 24°12' W 046°05'0 0.0
2017-Nov-28 16:30S 24°12' W 046°05'0 0.0
2017-Nov-28 16:00S 24°12' W 046°05'0 0.0
2017-Nov-28 15:00S 24°12' W 046°05'0 0.0
2017-Nov-28 14:18S 24°12' W 046°05'0 0.0
2017-Nov-28 13:57S 24°12' W 046°05'0 0.0
2017-Nov-28 13:30S 24°12' W 046°05'0 0.0
2017-Nov-28 13:00S 24°12' W 046°05'0 0.0
2017-Nov-28 12:24S 24°12' W 046°05'0 0.0
2017-Nov-28 12:00S 24°12' W 046°05'0 0.0
2017-Nov-28 11:30S 24°12' W 046°05'0 0.0
2017-Nov-28 11:00S 24°12' W 046°05'0 0.1
2017-Nov-28 10:30S 24°12' W 046°05'0 0.0
2017-Nov-28 10:00S 24°12' W 046°05'0 0.0
2017-Nov-28 09:30S 24°12' W 046°05'0 0.0
2017-Nov-28 08:54S 24°12' W 046°05'0 0.1
2017-Nov-28 08:30S 24°12' W 046°05'0 0.0
2017-Nov-28 08:00S 24°12' W 046°05'0 0.0
2017-Nov-28 07:30S 24°12' W 046°05'0 0.0
2017-Nov-28 07:00S 24°12' W 046°05'0 0.0
2017-Nov-28 06:30S 24°12' W 046°05'0 0.0
2017-Nov-28 06:00S 24°12' W 046°05'0 0.0
2017-Nov-28 05:30S 24°12' W 046°05'0 0.0
2017-Nov-28 04:30S 24°12' W 046°05'0 0.0
2017-Nov-28 04:00S 24°12' W 046°05'0 0.0
2017-Nov-28 03:27S 24°12' W 046°05'0 0.0
2017-Nov-28 03:00S 24°12' W 046°05'0 0.0
2017-Nov-28 02:30S 24°12' W 046°05'0 0.1
2017-Nov-28 02:00S 24°12' W 046°05'0 0.0
2017-Nov-28 01:30S 24°12' W 046°05'0 0.0
2017-Nov-28 01:00S 24°12' W 046°05'0 0.0
2017-Nov-28 00:30S 24°12' W 046°05'0 0.0
2017-Nov-28 00:00S 24°12' W 046°05'0 0.0
2017-Nov-27 23:30S 24°12' W 046°05'0 0.0
2017-Nov-27 22:42S 24°12' W 046°05'0 0.1
2017-Nov-27 22:18S 24°12' W 046°05'0 0.0
2017-Nov-27 22:00S 24°12' W 046°05'0 0.1
2017-Nov-27 21:30S 24°12' W 046°05'0 0.0
2017-Nov-27 20:54S 24°12' W 046°05'0 0.1
2017-Nov-27 20:30S 24°12' W 046°05'0 0.0
2017-Nov-27 20:00S 24°12' W 046°05'0 0.1
2017-Nov-27 19:30S 24°12' W 046°05'0 0.0
2017-Nov-27 19:00S 24°12' W 046°05'0 0.0
2017-Nov-27 18:30S 24°12' W 046°05'0 0.0
2017-Nov-27 17:42S 24°12' W 046°05'0 0.0
2017-Nov-27 17:30S 24°12' W 046°05'0 0.0
2017-Nov-27 16:48S 24°12' W 046°05'0 0.0
2017-Nov-27 16:30S 24°12' W 046°05'0 0.0
2017-Nov-27 16:00S 24°12' W 046°05'0 0.0
2017-Nov-27 15:24S 24°12' W 046°05'0 0.0
2017-Nov-27 15:00S 24°12' W 046°05'0 0.0
2017-Nov-27 14:30S 24°12' W 046°05'0 0.0
2017-Nov-27 14:00S 24°12' W 046°05'0 0.0
2017-Nov-27 13:30S 24°12' W 046°05'0 0.0
2017-Nov-27 13:00S 24°12' W 046°05'0 0.0
2017-Nov-27 12:30S 24°12' W 046°05'0 0.0
2017-Nov-27 11:54S 24°12' W 046°05'0 0.0
2017-Nov-27 11:24S 24°12' W 046°05'0 0.0
2017-Nov-27 11:00S 24°12' W 046°05'0 0.0
2017-Nov-27 10:24S 24°12' W 046°05'0 0.0
2017-Nov-27 10:00S 24°12' W 046°05'0 0.0
2017-Nov-27 09:24S 24°12' W 046°05'0 0.0
2017-Nov-27 09:00S 24°12' W 046°05'0 0.0
2017-Nov-27 08:30S 24°12' W 046°05'0 0.0
2017-Nov-27 08:00S 24°12' W 046°05'0 0.0
2017-Nov-27 07:30S 24°12' W 046°05'0 0.0
2017-Nov-27 06:54S 24°12' W 046°05'0 0.0
2017-Nov-27 06:30S 24°12' W 046°05'0 0.0
2017-Nov-27 06:00S 24°12' W 046°05'0 0.0
2017-Nov-27 05:30S 24°12' W 046°05'0 0.0
2017-Nov-27 05:00S 24°12' W 046°05'0 0.0
2017-Nov-27 04:30S 24°12' W 046°05'0 0.0
2017-Nov-27 04:00S 24°12' W 046°05'0 0.1
2017-Nov-27 03:30S 24°12' W 046°05'0 0.2
2017-Nov-27 03:00S 24°12' W 046°05'0 0.2
2017-Nov-27 02:27S 24°12' W 046°05'0 0.1
2017-Nov-27 01:57S 24°12' W 046°05'0 0.1
2017-Nov-27 01:30S 24°12' W 046°05'0 0.1
2017-Nov-27 01:00S 24°12' W 046°05'0 0.0
2017-Nov-27 00:24S 24°12' W 046°05'0 0.0
2017-Nov-27 00:00S 24°12' W 046°05'0 0.0
2017-Nov-26 23:24S 24°12' W 046°05'0 0.0
2017-Nov-26 23:00S 24°12' W 046°05'0 0.0
2017-Nov-26 22:30S 24°12' W 046°05'0 0.0
2017-Nov-26 22:00S 24°12' W 046°05'0 0.0
2017-Nov-26 21:30S 24°12' W 046°05'0 0.0
2017-Nov-26 21:00S 24°12' W 046°05'0 0.0
2017-Nov-26 20:30S 24°12' W 046°05'0 0.0
2017-Nov-26 20:00S 24°12' W 046°05'0 0.0
2017-Nov-26 19:30S 24°12' W 046°05'0 0.0
2017-Nov-26 18:57S 24°12' W 046°05'0 0.1
2017-Nov-26 18:30S 24°12' W 046°05'0 0.0
2017-Nov-26 18:00S 24°12' W 046°05'0 0.0
2017-Nov-26 17:24S 24°12' W 046°05'0 0.1
2017-Nov-26 17:00S 24°12' W 046°05'0 0.0
2017-Nov-26 16:30S 24°12' W 046°05'0 0.0
2017-Nov-26 16:00S 24°12' W 046°05'0 0.0
2017-Nov-26 15:30S 24°12' W 046°05'0 0.0
2017-Nov-26 15:00S 24°12' W 046°05'0 0.0
2017-Nov-26 14:30S 24°12' W 046°05'0 0.0
2017-Nov-26 14:00S 24°12' W 046°05'0 0.0
2017-Nov-26 13:12S 24°12' W 046°05'0 0.0
2017-Nov-26 12:54S 24°12' W 046°05'0 0.1
2017-Nov-26 12:30S 24°12' W 046°05'0 0.0
2017-Nov-26 12:00S 24°12' W 046°05'0 0.0
2017-Nov-26 11:30S 24°12' W 046°05'0 0.0
2017-Nov-26 11:00S 24°12' W 046°05'0 0.0
2017-Nov-26 10:30S 24°12' W 046°05'0 0.0
2017-Nov-26 10:00S 24°12' W 046°05'0 0.0
2017-Nov-26 09:30S 24°12' W 046°05'0 0.0
2017-Nov-26 09:00S 24°12' W 046°05'0 0.0
2017-Nov-26 08:30S 24°12' W 046°05'0 0.0
2017-Nov-26 08:00S 24°12' W 046°05'0 0.0
2017-Nov-26 07:30S 24°12' W 046°05'0 0.0
2017-Nov-26 07:00S 24°12' W 046°05'0 0.0
2017-Nov-26 06:30S 24°12' W 046°05'0 0.0
2017-Nov-26 06:00S 24°12' W 046°05'0 0.1
2017-Nov-26 05:30S 24°12' W 046°05'0 0.2
2017-Nov-26 05:00S 24°12' W 046°05'0 0.0
2017-Nov-26 04:30S 24°12' W 046°05'0 0.0
2017-Nov-26 03:57S 24°12' W 046°05'0 0.0
2017-Nov-26 03:30S 24°12' W 046°05'0 0.0
2017-Nov-26 03:00S 24°12' W 046°05'1 2.1
2017-Nov-26 02:30S 24°11' W 046°06'5 9.5
2017-Nov-26 02:00S 24°08' W 046°10'612.5
2017-Nov-26 01:30S 24°05' W 046°15'611.8
2017-Nov-26 01:00S 24°01' W 046°21'4 7.9
2017-Nov-26 00:30S 23°59' W 046°17'5 8.5
2017-Nov-25 23:56S 23°55' W 046°21'2 0.1
2017-Nov-24 17:23S 23°55' W 046°22'4 7.4
2017-Nov-24 16:52S 23°56' W 046°19'3 8.1
2017-Nov-24 16:30S 23°59' W 046°17'3 6.8
2017-Nov-24 16:00S 24°01' W 046°20'3 6.9
2017-Nov-24 15:31S 24°04' W 046°22'4 8.5
2017-Nov-24 15:00S 24°08' W 046°21'0 0.7
2017-Nov-24 14:24S 24°08' W 046°20'0 0.0
2017-Nov-24 14:00S 24°08' W 046°20'0 0.0
2017-Nov-24 13:24S 24°08' W 046°20'0 0.0
2017-Nov-24 12:54S 24°08' W 046°20'0 0.0
2017-Nov-24 12:30S 24°08' W 046°20'0 0.0
2017-Nov-24 12:00S 24°08' W 046°20'0 0.0
2017-Nov-24 11:30S 24°08' W 046°20'0 0.0
2017-Nov-24 11:00S 24°08' W 046°20'0 0.0
2017-Nov-24 10:30S 24°08' W 046°20'0 0.1
2017-Nov-24 10:00S 24°08' W 046°20'0 0.0
2017-Nov-24 09:30S 24°08' W 046°20'0 0.0
2017-Nov-24 09:00S 24°08' W 046°21'0 0.0
2017-Nov-24 08:30S 24°08' W 046°21'0 0.0
2017-Nov-24 08:00S 24°08' W 046°21'0 0.0
2017-Nov-24 07:27S 24°08' W 046°21'0 0.0
2017-Nov-24 07:00S 24°08' W 046°21'0 0.0
2017-Nov-24 06:30S 24°08' W 046°20'0 0.0
2017-Nov-24 06:00S 24°08' W 046°21'0 0.0
2017-Nov-24 05:30S 24°08' W 046°21'0 0.0
2017-Nov-24 05:00S 24°08' W 046°21'0 0.0
2017-Nov-24 04:30S 24°08' W 046°21'0 0.0
2017-Nov-24 03:54S 24°08' W 046°21'0 0.0
2017-Nov-24 03:30S 24°08' W 046°21'0 0.0
2017-Nov-24 03:00S 24°08' W 046°21'0 0.0
2017-Nov-24 02:30S 24°08' W 046°21'0 0.1
2017-Nov-24 01:57S 24°08' W 046°21'0 0.0
2017-Nov-24 01:30S 24°08' W 046°21'0 0.0
2017-Nov-24 01:00S 24°08' W 046°21'0 0.0
2017-Nov-24 00:30S 24°08' W 046°21'0 0.0
2017-Nov-23 23:54S 24°08' W 046°21'0 0.0
2017-Nov-23 23:30S 24°08' W 046°21'0 0.0
2017-Nov-23 22:54S 24°08' W 046°21'0 0.0
2017-Nov-23 22:30S 24°08' W 046°21'0 0.1
2017-Nov-23 22:00S 24°08' W 046°21'0 0.0
2017-Nov-23 21:30S 24°08' W 046°21'0 0.0
2017-Nov-23 21:00S 24°08' W 046°21'0 0.0
2017-Nov-23 20:30S 24°08' W 046°21'0 0.0
2017-Nov-23 20:00S 24°08' W 046°21'0 0.0
2017-Nov-23 19:30S 24°08' W 046°21'0 0.0
2017-Nov-23 19:00S 24°08' W 046°21'0 0.0
2017-Nov-23 18:21S 24°08' W 046°21'0 0.1
2017-Nov-23 18:00S 24°08' W 046°21'0 0.0
2017-Nov-23 17:30S 24°08' W 046°21'0 0.0
2017-Nov-23 16:57S 24°08' W 046°21'0 0.0
2017-Nov-23 16:30S 24°08' W 046°21'0 0.0
2017-Nov-23 15:54S 24°08' W 046°21'0 0.0
2017-Nov-23 15:30S 24°08' W 046°21'0 0.0
2017-Nov-23 15:00S 24°08' W 046°21'0 0.0
2017-Nov-23 14:24S 24°08' W 046°20'0 0.0
2017-Nov-23 14:00S 24°08' W 046°20'0 0.1
2017-Nov-23 13:30S 24°08' W 046°20'0 0.0
2017-Nov-23 13:00S 24°08' W 046°20'0 0.0
2017-Nov-23 12:30S 24°08' W 046°20'0 0.0
2017-Nov-23 12:00S 24°08' W 046°20'0 0.1
2017-Nov-23 11:30S 24°08' W 046°20'0 0.0
2017-Nov-23 10:54S 24°08' W 046°20'0 0.0
2017-Nov-23 10:27S 24°08' W 046°20'0 0.0
2017-Nov-23 10:00S 24°08' W 046°20'0 0.0
2017-Nov-23 09:30S 24°08' W 046°20'0 0.0
2017-Nov-23 09:00S 24°08' W 046°20'0 0.0
2017-Nov-23 08:27S 24°08' W 046°20'0 0.0
2017-Nov-23 08:00S 24°08' W 046°20'0 0.0
2017-Nov-23 07:30S 24°08' W 046°20'0 0.0
2017-Nov-23 07:00S 24°08' W 046°20'0 0.0
2017-Nov-23 06:30S 24°08' W 046°20'0 0.0
2017-Nov-23 06:00S 24°08' W 046°20'0 0.0
2017-Nov-23 05:30S 24°08' W 046°20'0 0.0
2017-Nov-23 05:00S 24°08' W 046°20'0 0.0
2017-Nov-23 04:30S 24°08' W 046°20'0 0.0
2017-Nov-23 04:00S 24°08' W 046°20'0 0.0
2017-Nov-23 03:21S 24°08' W 046°20'0 0.1
2017-Nov-23 03:00S 24°08' W 046°20'0 0.0
2017-Nov-23 02:24S 24°08' W 046°20'0 0.0
2017-Nov-23 02:00S 24°08' W 046°20'0 0.1
2017-Nov-23 01:30S 24°08' W 046°20'0 0.0
2017-Nov-23 00:48S 24°08' W 046°20'0 0.0
2017-Nov-23 00:30S 24°08' W 046°20'0 0.0
2017-Nov-23 00:00S 24°08' W 046°20'0 0.0
2017-Nov-22 23:30S 24°08' W 046°20'0 0.0
2017-Nov-22 23:00S 24°08' W 046°20'0 0.0
2017-Nov-22 22:30S 24°08' W 046°20'0 0.0
2017-Nov-22 22:00S 24°08' W 046°20'0 0.0
2017-Nov-22 21:27S 24°08' W 046°20'0 0.0
2017-Nov-22 21:00S 24°08' W 046°20'0 0.0
2017-Nov-22 20:30S 24°08' W 046°20'0 0.0
2017-Nov-22 20:00S 24°08' W 046°20'0 0.0
2017-Nov-22 19:18S 24°08' W 046°20'  
2017-Nov-20 00:28S 24°08' W 046°20'0 0.0
2017-Nov-19 23:58S 24°08' W 046°20'0 0.0
2017-Nov-19 23:28S 24°08' W 046°20'0 0.0
2017-Nov-19 22:58S 24°08' W 046°20'0 0.0
2017-Nov-19 22:28S 24°08' W 046°20'0 0.0
2017-Nov-19 21:58S 24°08' W 046°20'0 0.0
2017-Nov-19 21:28S 24°08' W 046°20'0 0.0
2017-Nov-19 20:58S 24°08' W 046°20'0 0.0
2017-Nov-19 20:22S 24°08' W 046°20'0 0.1
2017-Nov-19 19:58S 24°08' W 046°20'0 0.1
2017-Nov-19 19:28S 24°08' W 046°20'0 0.0
2017-Nov-19 18:58S 24°08' W 046°20'0 0.0
2017-Nov-19 18:28S 24°08' W 046°20'0 0.0
2017-Nov-19 17:58S 24°08' W 046°20'0 0.1
2017-Nov-19 17:28S 24°08' W 046°20'0 0.0
2017-Nov-19 16:58S 24°08' W 046°20'0 0.0
2017-Nov-19 16:28S 24°08' W 046°20'0 0.0
2017-Nov-19 15:58S 24°08' W 046°20'0 0.0
2017-Nov-19 15:28S 24°08' W 046°20'0 0.0
2017-Nov-19 14:58S 24°08' W 046°20'0 0.0
2017-Nov-19 14:28S 24°08' W 046°20'0 0.0
2017-Nov-19 13:58S 24°08' W 046°20'0 0.0
2017-Nov-19 13:25S 24°08' W 046°20'0 0.0
2017-Nov-19 12:58S 24°08' W 046°20'0 0.0
2017-Nov-19 12:28S 24°08' W 046°20'0 0.0
2017-Nov-19 11:58S 24°08' W 046°20'0 0.0
2017-Nov-19 11:28S 24°08' W 046°20'0 0.0
2017-Nov-19 10:58S 24°08' W 046°20'0 0.0
2017-Nov-19 10:28S 24°08' W 046°20'0 0.0
2017-Nov-19 09:49S 24°08' W 046°20'0 0.0
2017-Nov-19 09:22S 24°08' W 046°20'0 0.0
2017-Nov-19 08:52S 24°08' W 046°20'0 0.0
2017-Nov-19 08:28S 24°08' W 046°20'0 0.2
2017-Nov-19 07:58S 24°08' W 046°20'0 0.2
2017-Nov-19 07:28S 24°08' W 046°20'0 0.1
2017-Nov-19 06:58S 24°08' W 046°21'0 0.0
2017-Nov-19 06:28S 24°08' W 046°21'0 0.0
2017-Nov-19 05:58S 24°08' W 046°21'0 0.0
2017-Nov-19 05:28S 24°08' W 046°21'0 0.1
2017-Nov-19 04:58S 24°08' W 046°21'0 0.0
2017-Nov-19 04:28S 24°08' W 046°21'0 0.1
2017-Nov-19 03:52S 24°08' W 046°21'0 0.0
2017-Nov-19 03:28S 24°08' W 046°21'0 0.0
2017-Nov-19 02:58S 24°08' W 046°21'0 0.0
2017-Nov-19 02:28S 24°08' W 046°21'0 0.1
2017-Nov-19 01:58S 24°08' W 046°21'  
Track history (hours):
 
Tides and Currents Weather Stations Pressure Air Temp Water Temp Dewpoint Dewpoint Depression Visibility Wind Speed Wind Dir Waves Ship Positions

Fu Quan Shan

Last reported at 2017-Nov-29 01:55 UTC. Time now 2017-Dec-11 23:07 UTC.
Position S 24°16' W 045°47'.
Warning: this ship's position is 12 days out of date.

Length 190 m; draft 7.4 m.

Type: Cargo ship. MMSI: 477902600.

Date/timePositionNaut miles runAvg speedWind from/ knotsBaromVisibWave heightAir tempDewpointWater temp
2017-Nov-29 01:55S 24°16' W 045°47'711.9
2017-Nov-29 01:22S 24°15' W 045°55'512.2
2017-Nov-29 00:57S 24°12' W 045°59'512.2
2017-Nov-29 00:30S 24°09' W 046°04'611.4
2017-Nov-29 00:00S 24°06' W 046°10'510.1
2017-Nov-28 23:30S 24°05' W 046°15'5 9.5
2017-Nov-28 23:00S 24°02' W 046°19'1 2.5
2017-Nov-28 22:26S 24°01' W 046°20'0 0.0
2017-Nov-28 21:56S 24°01' W 046°20'0 0.1
2017-Nov-28 21:29S 24°01' W 046°20'0 0.2
2017-Nov-28 20:50S 24°01' W 046°20'0 0.4
2017-Nov-28 20:31S 24°01' W 046°20'2 4.7
2017-Nov-28 20:01S 24°03' W 046°18'4 8.9
2017-Nov-28 19:30S 24°05' W 046°14'510.0
2017-Nov-28 19:00S 24°08' W 046°10'510.5
2017-Nov-28 18:30S 24°11' W 046°05'1 0.9
2017-Nov-28 17:48S 24°12' W 046°05'0 0.0
2017-Nov-28 17:30S 24°12' W 046°05'0 0.0
2017-Nov-28 17:00S 24°12' W 046°05'0 0.0
2017-Nov-28 16:30S 24°12' W 046°05'0 0.0
2017-Nov-28 16:00S 24°12' W 046°05'0 0.0
2017-Nov-28 15:00S 24°12' W 046°05'0 0.0
2017-Nov-28 14:18S 24°12' W 046°05'0 0.0
2017-Nov-28 13:57S 24°12' W 046°05'0 0.0
2017-Nov-28 13:30S 24°12' W 046°05'0 0.0
2017-Nov-28 13:00S 24°12' W 046°05'0 0.0
2017-Nov-28 12:24S 24°12' W 046°05'0 0.0
2017-Nov-28 12:00S 24°12' W 046°05'0 0.0
2017-Nov-28 11:30S 24°12' W 046°05'0 0.0
2017-Nov-28 11:00S 24°12' W 046°05'0 0.1
2017-Nov-28 10:30S 24°12' W 046°05'0 0.0
2017-Nov-28 10:00S 24°12' W 046°05'0 0.0
2017-Nov-28 09:30S 24°12' W 046°05'0 0.0
2017-Nov-28 08:54S 24°12' W 046°05'0 0.1
2017-Nov-28 08:30S 24°12' W 046°05'0 0.0
2017-Nov-28 08:00S 24°12' W 046°05'0 0.0
2017-Nov-28 07:30S 24°12' W 046°05'0 0.0
2017-Nov-28 07:00S 24°12' W 046°05'0 0.0
2017-Nov-28 06:30S 24°12' W 046°05'0 0.0
2017-Nov-28 06:00S 24°12' W 046°05'0 0.0
2017-Nov-28 05:30S 24°12' W 046°05'0 0.0
2017-Nov-28 04:30S 24°12' W 046°05'0 0.0
2017-Nov-28 04:00S 24°12' W 046°05'0 0.0
2017-Nov-28 03:27S 24°12' W 046°05'0 0.0
2017-Nov-28 03:00S 24°12' W 046°05'0 0.0
2017-Nov-28 02:30S 24°12' W 046°05'0 0.1
2017-Nov-28 02:00S 24°12' W 046°05'0 0.0
2017-Nov-28 01:30S 24°12' W 046°05'0 0.0
2017-Nov-28 01:00S 24°12' W 046°05'0 0.0
2017-Nov-28 00:30S 24°12' W 046°05'0 0.0
2017-Nov-28 00:00S 24°12' W 046°05'0 0.0
2017-Nov-27 23:30S 24°12' W 046°05'0 0.0
2017-Nov-27 22:42S 24°12' W 046°05'0 0.1
2017-Nov-27 22:18S 24°12' W 046°05'0 0.0
2017-Nov-27 22:00S 24°12' W 046°05'0 0.1
2017-Nov-27 21:30S 24°12' W 046°05'0 0.0
2017-Nov-27 20:54S 24°12' W 046°05'0 0.1
2017-Nov-27 20:30S 24°12' W 046°05'0 0.0
2017-Nov-27 20:00S 24°12' W 046°05'0 0.1
2017-Nov-27 19:30S 24°12' W 046°05'0 0.0
2017-Nov-27 19:00S 24°12' W 046°05'0 0.0
2017-Nov-27 18:30S 24°12' W 046°05'0 0.0
2017-Nov-27 17:42S 24°12' W 046°05'0 0.0
2017-Nov-27 17:30S 24°12' W 046°05'0 0.0
2017-Nov-27 16:48S 24°12' W 046°05'0 0.0
2017-Nov-27 16:30S 24°12' W 046°05'0 0.0
2017-Nov-27 16:00S 24°12' W 046°05'0 0.0
2017-Nov-27 15:24S 24°12' W 046°05'0 0.0
2017-Nov-27 15:00S 24°12' W 046°05'0 0.0
2017-Nov-27 14:30S 24°12' W 046°05'0 0.0
2017-Nov-27 14:00S 24°12' W 046°05'0 0.0
2017-Nov-27 13:30S 24°12' W 046°05'0 0.0
2017-Nov-27 13:00S 24°12' W 046°05'0 0.0
2017-Nov-27 12:30S 24°12' W 046°05'0 0.0
2017-Nov-27 11:54S 24°12' W 046°05'0 0.0
2017-Nov-27 11:24S 24°12' W 046°05'0 0.0
2017-Nov-27 11:00S 24°12' W 046°05'0 0.0
2017-Nov-27 10:24S 24°12' W 046°05'0 0.0
2017-Nov-27 10:00S 24°12' W 046°05'0 0.0
2017-Nov-27 09:24S 24°12' W 046°05'0 0.0
2017-Nov-27 09:00S 24°12' W 046°05'0 0.0
2017-Nov-27 08:30S 24°12' W 046°05'0 0.0
2017-Nov-27 08:00S 24°12' W 046°05'0 0.0
2017-Nov-27 07:30S 24°12' W 046°05'0 0.0
2017-Nov-27 06:54S 24°12' W 046°05'0 0.0
2017-Nov-27 06:30S 24°12' W 046°05'0 0.0
2017-Nov-27 06:00S 24°12' W 046°05'0 0.0
2017-Nov-27 05:30S 24°12' W 046°05'0 0.0
2017-Nov-27 05:00S 24°12' W 046°05'0 0.0
2017-Nov-27 04:30S 24°12' W 046°05'0 0.0
2017-Nov-27 04:00S 24°12' W 046°05'0 0.1
2017-Nov-27 03:30S 24°12' W 046°05'0 0.2
2017-Nov-27 03:00S 24°12' W 046°05'0 0.2
2017-Nov-27 02:27S 24°12' W 046°05'0 0.1
2017-Nov-27 01:57S 24°12' W 046°05'0 0.1
2017-Nov-27 01:30S 24°12' W 046°05'0 0.1
2017-Nov-27 01:00S 24°12' W 046°05'0 0.0
2017-Nov-27 00:24S 24°12' W 046°05'0 0.0
2017-Nov-27 00:00S 24°12' W 046°05'0 0.0
2017-Nov-26 23:24S 24°12' W 046°05'0 0.0
2017-Nov-26 23:00S 24°12' W 046°05'0 0.0
2017-Nov-26 22:30S 24°12' W 046°05'0 0.0
2017-Nov-26 22:00S 24°12' W 046°05'0 0.0
2017-Nov-26 21:30S 24°12' W 046°05'0 0.0
2017-Nov-26 21:00S 24°12' W 046°05'0 0.0
2017-Nov-26 20:30S 24°12' W 046°05'0 0.0
2017-Nov-26 20:00S 24°12' W 046°05'0 0.0
2017-Nov-26 19:30S 24°12' W 046°05'0 0.0
2017-Nov-26 18:57S 24°12' W 046°05'0 0.1
2017-Nov-26 18:30S 24°12' W 046°05'0 0.0
2017-Nov-26 18:00S 24°12' W 046°05'0 0.0
2017-Nov-26 17:24S 24°12' W 046°05'0 0.1
2017-Nov-26 17:00S 24°12' W 046°05'0 0.0
2017-Nov-26 16:30S 24°12' W 046°05'0 0.0
2017-Nov-26 16:00S 24°12' W 046°05'0 0.0
2017-Nov-26 15:30S 24°12' W 046°05'0 0.0
2017-Nov-26 15:00S 24°12' W 046°05'0 0.0
2017-Nov-26 14:30S 24°12' W 046°05'0 0.0
2017-Nov-26 14:00S 24°12' W 046°05'0 0.0
2017-Nov-26 13:12S 24°12' W 046°05'0 0.0
2017-Nov-26 12:54S 24°12' W 046°05'0 0.1
2017-Nov-26 12:30S 24°12' W 046°05'0 0.0
2017-Nov-26 12:00S 24°12' W 046°05'0 0.0
2017-Nov-26 11:30S 24°12' W 046°05'0 0.0
2017-Nov-26 11:00S 24°12' W 046°05'0 0.0
2017-Nov-26 10:30S 24°12' W 046°05'0 0.0
2017-Nov-26 10:00S 24°12' W 046°05'0 0.0
2017-Nov-26 09:30S 24°12' W 046°05'0 0.0
2017-Nov-26 09:00S 24°12' W 046°05'0 0.0
2017-Nov-26 08:30S 24°12' W 046°05'0 0.0
2017-Nov-26 08:00S 24°12' W 046°05'0 0.0
2017-Nov-26 07:30S 24°12' W 046°05'0 0.0
2017-Nov-26 07:00S 24°12' W 046°05'0 0.0
2017-Nov-26 06:30S 24°12' W 046°05'0 0.0
2017-Nov-26 06:00S 24°12' W 046°05'0 0.1
2017-Nov-26 05:30S 24°12' W 046°05'0 0.2
2017-Nov-26 05:00S 24°12' W 046°05'0 0.0
2017-Nov-26 04:30S 24°12' W 046°05'0 0.0
2017-Nov-26 03:57S 24°12' W 046°05'0 0.0
2017-Nov-26 03:30S 24°12' W 046°05'0 0.0
2017-Nov-26 03:00S 24°12' W 046°05'1 2.1
2017-Nov-26 02:30S 24°11' W 046°06'5 9.5
2017-Nov-26 02:00S 24°08' W 046°10'612.5
2017-Nov-26 01:30S 24°05' W 046°15'611.8
2017-Nov-26 01:00S 24°01' W 046°21'4 7.9
2017-Nov-26 00:30S 23°59' W 046°17'5 8.5
2017-Nov-25 23:56S 23°55' W 046°21'2 0.1
2017-Nov-24 17:23S 23°55' W 046°22'4 7.4
2017-Nov-24 16:52S 23°56' W 046°19'3 8.1
2017-Nov-24 16:30S 23°59' W 046°17'3 6.8
2017-Nov-24 16:00S 24°01' W 046°20'3 6.9
2017-Nov-24 15:31S 24°04' W 046°22'4 8.5
2017-Nov-24 15:00S 24°08' W 046°21'0 0.7
2017-Nov-24 14:24S 24°08' W 046°20'0 0.0
2017-Nov-24 14:00S 24°08' W 046°20'0 0.0
2017-Nov-24 13:24S 24°08' W 046°20'0 0.0
2017-Nov-24 12:54S 24°08' W 046°20'0 0.0
2017-Nov-24 12:30S 24°08' W 046°20'0 0.0
2017-Nov-24 12:00S 24°08' W 046°20'0 0.0
2017-Nov-24 11:30S 24°08' W 046°20'0 0.0
2017-Nov-24 11:00S 24°08' W 046°20'0 0.0
2017-Nov-24 10:30S 24°08' W 046°20'0 0.1
2017-Nov-24 10:00S 24°08' W 046°20'0 0.0
2017-Nov-24 09:30S 24°08' W 046°20'0 0.0
2017-Nov-24 09:00S 24°08' W 046°21'0 0.0
2017-Nov-24 08:30S 24°08' W 046°21'0 0.0
2017-Nov-24 08:00S 24°08' W 046°21'0 0.0
2017-Nov-24 07:27S 24°08' W 046°21'0 0.0
2017-Nov-24 07:00S 24°08' W 046°21'0 0.0
2017-Nov-24 06:30S 24°08' W 046°20'0 0.0
2017-Nov-24 06:00S 24°08' W 046°21'0 0.0
2017-Nov-24 05:30S 24°08' W 046°21'0 0.0
2017-Nov-24 05:00S 24°08' W 046°21'0 0.0
2017-Nov-24 04:30S 24°08' W 046°21'0 0.0
2017-Nov-24 03:54S 24°08' W 046°21'0 0.0
2017-Nov-24 03:30S 24°08' W 046°21'0 0.0
2017-Nov-24 03:00S 24°08' W 046°21'0 0.0
2017-Nov-24 02:30S 24°08' W 046°21'0 0.1
2017-Nov-24 01:57S 24°08' W 046°21'0 0.0
2017-Nov-24 01:30S 24°08' W 046°21'0 0.0
2017-Nov-24 01:00S 24°08' W 046°21'0 0.0
2017-Nov-24 00:30S 24°08' W 046°21'0 0.0
2017-Nov-23 23:54S 24°08' W 046°21'0 0.0
2017-Nov-23 23:30S 24°08' W 046°21'0 0.0
2017-Nov-23 22:54S 24°08' W 046°21'0 0.0
2017-Nov-23 22:30S 24°08' W 046°21'0 0.1
2017-Nov-23 22:00S 24°08' W 046°21'0 0.0
2017-Nov-23 21:30S 24°08' W 046°21'0 0.0
2017-Nov-23 21:00S 24°08' W 046°21'0 0.0
2017-Nov-23 20:30S 24°08' W 046°21'0 0.0
2017-Nov-23 20:00S 24°08' W 046°21'0 0.0
2017-Nov-23 19:30S 24°08' W 046°21'0 0.0
2017-Nov-23 19:00S 24°08' W 046°21'0 0.0
2017-Nov-23 18:21S 24°08' W 046°21'0 0.1
2017-Nov-23 18:00S 24°08' W 046°21'0 0.0
2017-Nov-23 17:30S 24°08' W 046°21'0 0.0
2017-Nov-23 16:57S 24°08' W 046°21'0 0.0
2017-Nov-23 16:30S 24°08' W 046°21'0 0.0
2017-Nov-23 15:54S 24°08' W 046°21'0 0.0
2017-Nov-23 15:30S 24°08' W 046°21'0 0.0
2017-Nov-23 15:00S 24°08' W 046°21'0 0.0
2017-Nov-23 14:24S 24°08' W 046°20'0 0.0
2017-Nov-23 14:00S 24°08' W 046°20'0 0.1
2017-Nov-23 13:30S 24°08' W 046°20'0 0.0
2017-Nov-23 13:00S 24°08' W 046°20'0 0.0
2017-Nov-23 12:30S 24°08' W 046°20'0 0.0
2017-Nov-23 12:00S 24°08' W 046°20'0 0.1
2017-Nov-23 11:30S 24°08' W 046°20'0 0.0
2017-Nov-23 10:54S 24°08' W 046°20'0 0.0
2017-Nov-23 10:27S 24°08' W 046°20'0 0.0
2017-Nov-23 10:00S 24°08' W 046°20'0 0.0
2017-Nov-23 09:30S 24°08' W 046°20'0 0.0
2017-Nov-23 09:00S 24°08' W 046°20'0 0.0
2017-Nov-23 08:27S 24°08' W 046°20'0 0.0
2017-Nov-23 08:00S 24°08' W 046°20'0 0.0
2017-Nov-23 07:30S 24°08' W 046°20'0 0.0
2017-Nov-23 07:00S 24°08' W 046°20'0 0.0
2017-Nov-23 06:30S 24°08' W 046°20'0 0.0
2017-Nov-23 06:00S 24°08' W 046°20'0 0.0
2017-Nov-23 05:30S 24°08' W 046°20'0 0.0
2017-Nov-23 05:00S 24°08' W 046°20'0 0.0
2017-Nov-23 04:30S 24°08' W 046°20'0 0.0
2017-Nov-23 04:00S 24°08' W 046°20'0 0.0
2017-Nov-23 03:21S 24°08' W 046°20'0 0.1
2017-Nov-23 03:00S 24°08' W 046°20'0 0.0
2017-Nov-23 02:24S 24°08' W 046°20'0 0.0
2017-Nov-23 02:00S 24°08' W 046°20'0 0.1
2017-Nov-23 01:30S 24°08' W 046°20'0 0.0
2017-Nov-23 00:48S 24°08' W 046°20'0 0.0
2017-Nov-23 00:30S 24°08' W 046°20'0 0.0
2017-Nov-23 00:00S 24°08' W 046°20'0 0.0
2017-Nov-22 23:30S 24°08' W 046°20'0 0.0
2017-Nov-22 23:00S 24°08' W 046°20'0 0.0
2017-Nov-22 22:30S 24°08' W 046°20'0 0.0
2017-Nov-22 22:00S 24°08' W 046°20'0 0.0
2017-Nov-22 21:27S 24°08' W 046°20'0 0.0
2017-Nov-22 21:00S 24°08' W 046°20'0 0.0
2017-Nov-22 20:30S 24°08' W 046°20'0 0.0
2017-Nov-22 20:00S 24°08' W 046°20'0 0.0
2017-Nov-22 19:18S 24°08' W 046°20'  
2017-Nov-20 00:28S 24°08' W 046°20'0 0.0
2017-Nov-19 23:58S 24°08' W 046°20'0 0.0
2017-Nov-19 23:28S 24°08' W 046°20'0 0.0
2017-Nov-19 22:58S 24°08' W 046°20'0 0.0
2017-Nov-19 22:28S 24°08' W 046°20'0 0.0
2017-Nov-19 21:58S 24°08' W 046°20'0 0.0
2017-Nov-19 21:28S 24°08' W 046°20'0 0.0
2017-Nov-19 20:58S 24°08' W 046°20'0 0.0
2017-Nov-19 20:22S 24°08' W 046°20'0 0.1
2017-Nov-19 19:58S 24°08' W 046°20'0 0.1
2017-Nov-19 19:28S 24°08' W 046°20'0 0.0
2017-Nov-19 18:58S 24°08' W 046°20'0 0.0
2017-Nov-19 18:28S 24°08' W 046°20'0 0.0
2017-Nov-19 17:58S 24°08' W 046°20'0 0.1
2017-Nov-19 17:28S 24°08' W 046°20'0 0.0
2017-Nov-19 16:58S 24°08' W 046°20'0 0.0
2017-Nov-19 16:28S 24°08' W 046°20'0 0.0
2017-Nov-19 15:58S 24°08' W 046°20'0 0.0
2017-Nov-19 15:28S 24°08' W 046°20'0 0.0
2017-Nov-19 14:58S 24°08' W 046°20'0 0.0
2017-Nov-19 14:28S 24°08' W 046°20'0 0.0
2017-Nov-19 13:58S 24°08' W 046°20'0 0.0
2017-Nov-19 13:25S 24°08' W 046°20'0 0.0
2017-Nov-19 12:58S 24°08' W 046°20'0 0.0
2017-Nov-19 12:28S 24°08' W 046°20'0 0.0
2017-Nov-19 11:58S 24°08' W 046°20'0 0.0
2017-Nov-19 11:28S 24°08' W 046°20'0 0.0
2017-Nov-19 10:58S 24°08' W 046°20'0 0.0
2017-Nov-19 10:28S 24°08' W 046°20'0 0.0
2017-Nov-19 09:49S 24°08' W 046°20'0 0.0
2017-Nov-19 09:22S 24°08' W 046°20'0 0.0
2017-Nov-19 08:52S 24°08' W 046°20'0 0.0
2017-Nov-19 08:28S 24°08' W 046°20'0 0.2
2017-Nov-19 07:58S 24°08' W 046°20'0 0.2
2017-Nov-19 07:28S 24°08' W 046°20'0 0.1
2017-Nov-19 06:58S 24°08' W 046°21'0 0.0
2017-Nov-19 06:28S 24°08' W 046°21'0 0.0
2017-Nov-19 05:58S 24°08' W 046°21'0 0.0
2017-Nov-19 05:28S 24°08' W 046°21'0 0.1
2017-Nov-19 04:58S 24°08' W 046°21'0 0.0
2017-Nov-19 04:28S 24°08' W 046°21'0 0.1
2017-Nov-19 03:52S 24°08' W 046°21'0 0.0
2017-Nov-19 03:28S 24°08' W 046°21'0 0.0
2017-Nov-19 02:58S 24°08' W 046°21'0 0.0
2017-Nov-19 02:28S 24°08' W 046°21'0 0.1
2017-Nov-19 01:58S 24°08' W 046°21'  

Dump ship's entire track history